createdAt,value
2019-02-21T00:00:06.050Z,10.00
2019-02-21T00:02:34.587Z,9.47
2019-02-21T00:05:03.521Z,9.13
2019-02-21T00:07:32.543Z,10.10
2019-02-21T00:10:00.999Z,9.53
2019-02-21T00:12:29.493Z,9.57
2019-02-21T00:14:57.951Z,9.37
2019-02-21T00:17:26.438Z,9.90
2019-02-21T00:19:55.145Z,11.13
2019-02-21T00:22:23.640Z,10.80
2019-02-21T00:24:52.109Z,10.83
2019-02-21T00:27:20.587Z,9.83
2019-02-21T00:29:49.059Z,10.33
2019-02-21T00:32:17.593Z,9.47
2019-02-21T00:34:46.127Z,10.10
2019-02-21T00:37:14.612Z,9.47
2019-02-21T00:39:43.087Z,10.13
2019-02-21T00:42:11.664Z,10.03
2019-02-21T00:44:40.136Z,10.30
2019-02-21T00:47:08.596Z,9.50
2019-02-21T00:49:37.077Z,10.37
2019-02-21T00:52:05.534Z,9.83
2019-02-21T00:54:34.020Z,9.57
2019-02-21T00:57:02.555Z,10.23
2019-02-21T00:59:31.040Z,9.97
2019-02-21T01:01:59.568Z,9.90
2019-02-21T01:04:28.118Z,11.23
2019-02-21T01:06:56.649Z,10.00
2019-02-21T01:09:25.374Z,10.13
2019-02-21T01:11:53.844Z,10.93
2019-02-21T01:14:22.387Z,9.97
2019-02-21T01:16:50.846Z,9.37
2019-02-21T01:19:19.332Z,9.87
2019-02-21T01:21:47.820Z,9.50
2019-02-21T01:24:16.274Z,9.70
2019-02-21T01:26:44.770Z,9.33
2019-02-21T01:29:13.282Z,10.00
2019-02-21T01:31:41.763Z,9.23
2019-02-21T01:34:10.435Z,10.60
2019-02-21T01:36:38.940Z,9.97
2019-02-21T01:39:07.566Z,11.03
2019-02-21T01:41:36.052Z,9.23
2019-02-21T01:44:04.760Z,9.77
2019-02-21T01:46:33.355Z,9.67
2019-02-21T01:49:01.819Z,9.57
2019-02-21T01:51:30.305Z,9.47
2019-02-21T01:53:58.849Z,10.00
2019-02-21T01:56:27.354Z,9.40
2019-02-21T01:58:55.813Z,9.60
2019-02-21T02:01:24.278Z,10.03
2019-02-21T02:03:52.832Z,8.77
2019-02-21T02:06:21.292Z,10.23
2019-02-21T02:08:49.783Z,9.97
2019-02-21T02:11:18.241Z,9.33
2019-02-21T02:13:46.778Z,9.77
2019-02-21T02:16:15.250Z,9.83
2019-02-21T02:18:43.717Z,9.20
2019-02-21T02:21:12.912Z,9.23
2019-02-21T02:23:41.384Z,9.50
2019-02-21T02:26:09.842Z,9.63
2019-02-21T02:28:38.320Z,8.87
2019-02-21T02:31:07.031Z,8.67
2019-02-21T02:33:35.583Z,10.10
2019-02-21T02:36:04.102Z,9.17
2019-02-21T02:38:32.552Z,8.83
2019-02-21T02:41:01.035Z,9.27
2019-02-21T02:43:29.499Z,9.40
2019-02-21T02:45:57.980Z,9.17
2019-02-21T02:48:26.501Z,9.37
2019-02-21T02:50:54.964Z,9.03
2019-02-21T02:56:51.458Z,9.00
2019-02-21T03:02:54.558Z,9.07
2019-02-21T03:05:23.106Z,9.77
2019-02-21T03:07:51.568Z,9.73
2019-02-21T03:10:20.047Z,9.23
2019-02-21T03:12:48.505Z,9.07
2019-02-21T03:15:17.075Z,10.50
2019-02-21T03:17:45.572Z,9.93
2019-02-21T03:20:14.045Z,10.77
2019-02-21T03:22:42.529Z,10.43
2019-02-21T03:25:11.152Z,10.10
2019-02-21T03:27:39.728Z,10.17
2019-02-21T03:30:12.268Z,9.30
2019-02-21T03:32:40.426Z,8.80
2019-02-21T03:35:09.162Z,9.97
2019-02-21T03:37:37.749Z,9.90
2019-02-21T03:40:08.634Z,9.30
2019-02-21T03:42:37.277Z,8.93
2019-02-21T03:45:09.134Z,9.93
2019-02-21T03:47:37.682Z,9.40
2019-02-21T03:50:08.777Z,9.53
2019-02-21T03:52:37.329Z,8.87
2019-02-21T03:55:07.036Z,9.73
2019-02-21T03:57:35.581Z,9.70
2019-02-21T04:00:06.266Z,8.93
2019-02-21T04:02:34.813Z,9.20
2019-02-21T04:05:03.482Z,9.47
2019-02-21T04:07:32.007Z,9.77
2019-02-21T04:10:00.519Z,9.63
2019-02-21T04:12:29.033Z,9.90
2019-02-21T04:14:57.517Z,9.70
2019-02-21T04:17:25.986Z,9.03
2019-02-21T04:19:54.570Z,10.37
2019-02-21T04:22:23.132Z,10.13
2019-02-21T04:24:51.706Z,9.27
2019-02-21T04:27:20.183Z,9.03
2019-02-21T04:29:48.919Z,9.13
2019-02-21T04:32:17.466Z,9.43
2019-02-21T04:34:46.001Z,8.27
2019-02-21T04:37:14.565Z,9.53
2019-02-21T04:39:43.105Z,8.63
2019-02-21T04:42:11.607Z,8.67
2019-02-21T04:44:40.127Z,10.07
2019-02-21T04:47:10.265Z,9.03
2019-02-21T04:49:38.794Z,9.60
2019-02-21T04:52:07.300Z,10.03
2019-02-21T04:54:35.830Z,9.10
2019-02-21T04:57:04.336Z,9.90
2019-02-21T04:59:32.894Z,9.70
2019-02-21T05:02:01.464Z,10.80
2019-02-21T05:04:30.086Z,9.53
2019-02-21T05:06:58.663Z,10.00
2019-02-21T05:09:27.476Z,9.33
2019-02-21T05:11:56.092Z,10.73
2019-02-21T05:14:24.655Z,11.00
2019-02-21T05:16:53.212Z,11.07
2019-02-21T05:19:21.705Z,11.17
2019-02-21T05:21:50.165Z,8.90
2019-02-21T05:24:18.670Z,10.43
2019-02-21T05:26:48.845Z,10.50
2019-02-21T05:29:17.353Z,10.50
2019-02-21T05:31:53.361Z,9.37
2019-02-21T05:34:29.346Z,9.50
2019-02-21T05:37:02.215Z,10.73
2019-02-21T05:39:38.106Z,9.93
2019-02-21T05:42:11.258Z,10.43
2019-02-21T05:44:59.503Z,9.37
2019-02-21T05:47:37.808Z,9.53
2019-02-21T05:50:11.674Z,10.30
2019-02-21T05:52:50.808Z,10.03
2019-02-21T05:55:26.437Z,10.07
2019-02-21T05:58:08.279Z,10.33
2019-02-21T06:00:38.404Z,9.93
2019-02-21T06:03:08.602Z,10.10
2019-02-21T06:05:38.890Z,9.50
2019-02-21T06:08:23.927Z,10.03
2019-02-21T06:11:00.006Z,10.73
2019-02-21T06:13:30.179Z,10.93
2019-02-21T06:16:03.038Z,11.00
2019-02-21T06:18:36.154Z,9.93
2019-02-21T06:21:06.294Z,9.60
2019-02-21T06:23:39.480Z,9.37
2019-02-21T06:26:15.400Z,10.63
2019-02-21T06:28:48.238Z,10.33
2019-02-21T06:31:16.874Z,10.60
2019-02-21T06:33:45.358Z,10.60
2019-02-21T06:36:13.855Z,10.27
2019-02-21T06:38:42.334Z,11.23
2019-02-21T06:41:10.917Z,10.13
2019-02-21T06:43:39.465Z,9.97
2019-02-21T06:46:08.024Z,9.77
2019-02-21T06:48:36.596Z,10.80
2019-02-21T06:51:05.152Z,10.03
2019-02-21T06:53:33.716Z,10.37
2019-02-21T06:56:02.200Z,10.07
2019-02-21T06:58:30.782Z,11.43
2019-02-21T07:00:59.312Z,10.90
2019-02-21T07:03:29.046Z,10.07
2019-02-21T07:05:57.643Z,11.60
2019-02-21T07:08:47.258Z,11.17
2019-02-21T07:11:15.716Z,11.13
2019-02-21T07:13:44.233Z,11.27
2019-02-21T07:16:13.271Z,11.00
2019-02-21T07:18:41.850Z,9.93
2019-02-21T07:21:10.438Z,9.93
2019-02-21T07:23:43.417Z,10.77
2019-02-21T07:26:09.220Z,10.77
2019-02-21T07:28:37.737Z,10.87
2019-02-21T07:31:06.211Z,11.10
2019-02-21T07:33:34.707Z,10.50
2019-02-21T07:36:03.281Z,11.40
2019-02-21T07:38:31.810Z,10.57
2019-02-21T07:41:00.458Z,11.17
2019-02-21T07:43:29.074Z,11.07
2019-02-21T07:45:57.589Z,11.70
2019-02-21T07:48:26.134Z,11.37
2019-02-21T07:50:54.753Z,10.80
2019-02-21T07:53:23.216Z,11.60
2019-02-21T07:55:51.793Z,11.27
2019-02-21T07:58:20.269Z,11.07
2019-02-21T08:00:48.750Z,11.43
2019-02-21T08:03:29.558Z,10.40
2019-02-21T08:05:47.445Z,12.13
2019-02-21T08:08:15.988Z,11.53
2019-02-21T08:10:44.541Z,10.90
2019-02-21T08:13:13.133Z,11.70
2019-02-21T08:15:41.671Z,10.77
2019-02-21T08:18:10.179Z,11.13
2019-02-21T08:20:41.076Z,11.43
2019-02-21T08:23:10.928Z,11.43
2019-02-21T08:25:39.207Z,11.00
2019-02-21T08:28:07.790Z,11.53
2019-02-21T08:30:36.351Z,11.43
2019-02-21T08:33:12.524Z,12.10
2019-02-21T08:35:41.050Z,10.67
2019-02-21T08:38:12.035Z,11.87
2019-02-21T08:40:39.785Z,13.60
2019-02-21T08:43:08.270Z,11.83
2019-02-21T08:45:36.753Z,11.33
2019-02-21T08:48:05.254Z,12.07
2019-02-21T08:50:33.741Z,12.20
2019-02-21T08:53:02.302Z,13.17
2019-02-21T08:55:30.865Z,11.43
2019-02-21T08:57:59.328Z,13.27
2019-02-21T09:00:27.899Z,14.37
2019-02-21T09:02:58.159Z,12.53
2019-02-21T09:05:26.725Z,12.60
2019-02-21T09:07:55.205Z,14.23
2019-02-21T09:10:23.849Z,13.97
2019-02-21T09:12:52.446Z,13.90
2019-02-21T09:15:20.928Z,14.40
2019-02-21T09:17:50.928Z,14.73
2019-02-21T09:20:19.412Z,14.37
2019-02-21T09:22:47.900Z,16.53
2019-02-21T09:25:16.490Z,14.70
2019-02-21T09:27:45.037Z,15.10
2019-02-21T09:30:17.998Z,16.17
2019-02-21T09:32:46.559Z,14.53
2019-02-21T09:35:15.023Z,15.23
2019-02-21T09:37:43.662Z,15.23
2019-02-21T09:40:14.444Z,15.07
2019-02-21T09:42:43.015Z,16.60
2019-02-21T09:45:17.028Z,17.83
2019-02-21T09:47:45.537Z,15.70
2019-02-21T09:50:14.256Z,17.23
2019-02-21T09:52:42.882Z,18.07
2019-02-21T09:55:18.161Z,17.00
2019-02-21T09:57:46.660Z,15.77
2019-02-21T10:00:17.642Z,17.53
2019-02-21T10:02:46.289Z,15.13
2019-02-21T10:05:14.893Z,15.47
2019-02-21T10:07:43.461Z,16.53
2019-02-21T10:10:14.333Z,16.13
2019-02-21T10:12:42.898Z,16.20
2019-02-21T10:15:15.850Z,15.87
2019-02-21T10:17:44.423Z,16.40
2019-02-21T10:20:20.454Z,17.00
2019-02-21T10:22:48.947Z,16.53
2019-02-21T10:25:23.277Z,17.80
2019-02-21T10:27:51.918Z,16.47
2019-02-21T10:30:22.324Z,17.27
2019-02-21T10:32:51.088Z,17.73
2019-02-21T10:35:19.654Z,18.10
2019-02-21T10:37:48.310Z,16.40
2019-02-21T10:40:17.146Z,15.87
2019-02-21T10:42:45.740Z,15.27
2019-02-21T10:45:17.665Z,14.87
2019-02-21T10:47:46.198Z,15.77
2019-02-21T10:50:16.541Z,17.00
2019-02-21T10:52:45.161Z,14.73
2019-02-21T10:55:14.167Z,12.97
2019-02-21T10:57:45.284Z,15.67
2019-02-21T11:00:22.016Z,15.37
2019-02-21T11:02:50.657Z,14.13
2019-02-21T11:05:19.202Z,14.63
2019-02-21T11:07:47.739Z,15.10
2019-02-21T11:10:28.264Z,15.37
2019-02-21T11:12:56.745Z,14.93
2019-02-21T11:15:25.967Z,15.90
2019-02-21T11:17:54.589Z,14.27
2019-02-21T11:20:23.201Z,15.03
2019-02-21T11:22:51.776Z,12.50
2019-02-21T11:25:20.257Z,14.67
2019-02-21T11:27:48.878Z,13.27
2019-02-21T11:30:19.341Z,14.10
2019-02-21T11:32:47.922Z,14.83
2019-02-21T11:35:16.550Z,14.63
2019-02-21T11:37:47.117Z,14.50
2019-02-21T11:40:16.721Z,15.33
2019-02-21T11:42:45.541Z,12.33
2019-02-21T11:45:16.339Z,14.00
2019-02-21T11:47:45.032Z,12.63
2019-02-21T11:50:15.530Z,12.40
2019-02-21T11:52:44.076Z,13.60
2019-02-21T11:55:18.101Z,12.27
2019-02-21T11:57:46.605Z,10.57
2019-02-21T12:00:20.469Z,11.77
2019-02-21T12:02:49.026Z,11.77
2019-02-21T12:05:19.557Z,10.50
2019-02-21T12:07:47.762Z,11.10
2019-02-21T12:10:16.229Z,10.90
2019-02-21T12:12:44.854Z,11.97
2019-02-21T12:15:14.831Z,11.43
2019-02-21T12:17:43.449Z,10.07
2019-02-21T12:20:14.601Z,10.63
2019-02-21T12:22:43.079Z,11.47
2019-02-21T12:25:14.001Z,10.00
2019-02-21T12:27:42.481Z,10.00
2019-02-21T12:30:18.427Z,11.30
2019-02-21T12:32:46.969Z,11.53
2019-02-21T12:35:15.622Z,10.03
2019-02-21T12:37:44.199Z,11.83
2019-02-21T12:40:15.717Z,11.10
2019-02-21T12:42:44.245Z,11.57
2019-02-21T12:45:15.189Z,12.70
2019-02-21T12:47:50.677Z,12.43
2019-02-21T12:50:14.153Z,12.37
2019-02-21T12:52:42.674Z,11.43
2019-02-21T12:55:11.693Z,11.20
2019-02-21T12:57:40.277Z,12.57
2019-02-21T13:00:17.070Z,11.37
2019-02-21T13:02:45.580Z,12.60
2019-02-21T13:05:14.115Z,12.23
2019-02-21T13:07:42.623Z,12.07
2019-02-21T13:10:13.837Z,11.07
2019-02-21T13:12:42.357Z,11.67
2019-02-21T13:15:12.944Z,11.83
2019-02-21T13:17:41.503Z,12.87
2019-02-21T13:20:14.283Z,11.47
2019-02-21T13:22:43.035Z,11.70
2019-02-21T13:25:16.671Z,12.83
2019-02-21T13:27:45.224Z,11.70
2019-02-21T13:30:17.533Z,10.47
2019-02-21T13:32:46.157Z,11.43
2019-02-21T13:35:14.867Z,12.73
2019-02-21T13:37:43.460Z,11.27
2019-02-21T13:40:16.590Z,10.37
2019-02-21T13:42:45.048Z,11.10
2019-02-21T13:45:18.120Z,11.60
2019-02-21T13:47:46.826Z,11.37
2019-02-21T13:50:17.011Z,12.80
2019-02-21T13:52:45.465Z,10.80
2019-02-21T13:55:14.383Z,10.80
2019-02-21T13:57:42.885Z,10.00
2019-02-21T14:00:14.061Z,11.80
2019-02-21T14:02:42.619Z,10.60
2019-02-21T14:05:11.244Z,10.03
2019-02-21T14:07:39.800Z,10.87
2019-02-21T14:10:10.626Z,10.87
2019-02-21T14:12:39.262Z,11.13
2019-02-21T14:15:19.930Z,11.63
2019-02-21T14:17:48.431Z,11.57
2019-02-21T14:20:16.974Z,10.80
2019-02-21T14:22:45.524Z,9.77
2019-02-21T14:25:14.059Z,9.87
2019-02-21T14:27:42.623Z,9.67
2019-02-21T14:30:14.009Z,9.90
2019-02-21T14:32:42.565Z,8.57
2019-02-21T14:35:12.408Z,9.47
2019-02-21T14:37:40.932Z,9.70
2019-02-21T14:40:12.529Z,9.40
2019-02-21T14:42:41.033Z,8.67
2019-02-21T14:45:15.158Z,10.20
2019-02-21T14:47:43.620Z,9.50
2019-02-21T14:50:12.757Z,9.07
2019-02-21T14:52:41.353Z,9.50
2019-02-21T14:55:12.092Z,10.03
2019-02-21T14:57:41.418Z,8.93
2019-02-21T15:00:23.888Z,8.60
2019-02-21T15:02:52.343Z,9.33
2019-02-21T15:05:20.886Z,8.60
2019-02-21T15:07:49.360Z,10.67
2019-02-21T15:10:17.919Z,10.93
2019-02-21T15:12:46.380Z,10.60
2019-02-21T15:15:17.596Z,9.03
2019-02-21T15:17:46.146Z,9.57
2019-02-21T15:20:16.182Z,11.37
2019-02-21T15:22:44.754Z,10.37
2019-02-21T15:25:13.350Z,9.80
2019-02-21T15:27:41.839Z,10.70
2019-02-21T15:30:21.373Z,10.10
2019-02-21T15:32:50.035Z,9.93
2019-02-21T15:35:19.630Z,9.80
2019-02-21T15:37:48.375Z,10.77
2019-02-21T15:40:16.906Z,10.90
2019-02-21T15:42:45.404Z,10.07
2019-02-21T15:45:25.395Z,11.13
2019-02-21T15:47:53.927Z,10.20
2019-02-21T15:50:22.510Z,11.00
2019-02-21T15:52:53.070Z,11.03
2019-02-21T15:55:22.469Z,9.97
2019-02-21T15:58:00.537Z,9.50
2019-02-21T16:00:22.564Z,9.93
2019-02-21T16:02:51.493Z,10.30
2019-02-21T16:05:20.022Z,10.77
2019-02-21T16:07:48.482Z,9.70
2019-02-21T16:10:20.063Z,9.70
2019-02-21T16:12:48.778Z,10.13
2019-02-21T16:15:17.992Z,11.30
2019-02-21T16:17:46.572Z,9.20
2019-02-21T16:20:16.655Z,10.97
2019-02-21T16:22:45.416Z,10.53
2019-02-21T16:25:16.691Z,9.50
2019-02-21T16:27:45.227Z,10.27
2019-02-21T16:30:14.013Z,10.23
2019-02-21T16:32:42.573Z,9.03
2019-02-21T16:35:12.865Z,9.97
2019-02-21T16:37:41.348Z,9.90
2019-02-21T16:40:12.172Z,9.50
2019-02-21T16:42:40.692Z,9.10
2019-02-21T16:45:22.820Z,9.53
2019-02-21T16:47:51.512Z,9.37
2019-02-21T16:50:29.412Z,9.07
2019-02-21T16:52:50.275Z,9.20
2019-02-21T16:55:20.875Z,10.03
2019-02-21T16:57:49.456Z,10.93
2019-02-21T17:00:22.331Z,8.73
2019-02-21T17:02:50.907Z,9.77
2019-02-21T17:05:19.636Z,9.87
2019-02-21T17:07:48.182Z,10.13
2019-02-21T17:10:17.182Z,9.67
2019-02-21T17:12:45.821Z,8.67
2019-02-21T17:15:16.102Z,9.40
2019-02-21T17:17:44.585Z,7.83
2019-02-21T17:20:23.456Z,9.33
2019-02-21T17:22:52.018Z,8.77
2019-02-21T17:25:20.552Z,10.47
2019-02-21T17:27:50.382Z,9.67
2019-02-21T17:30:19.458Z,9.80
2019-02-21T17:32:48.078Z,9.37
2019-02-21T17:35:16.839Z,10.07
2019-02-21T17:37:45.402Z,11.07
2019-02-21T17:40:16.684Z,10.20
2019-02-21T17:42:45.181Z,10.13
2019-02-21T17:45:13.739Z,12.03
2019-02-21T17:47:42.213Z,10.23
2019-02-21T17:50:15.773Z,11.03
2019-02-21T17:52:44.470Z,11.87
2019-02-21T17:55:13.364Z,11.87
2019-02-21T17:57:41.851Z,11.73
2019-02-21T18:00:25.415Z,11.77
2019-02-21T18:02:53.894Z,11.63
2019-02-21T18:05:22.520Z,11.30
2019-02-21T18:07:51.083Z,11.53
2019-02-21T18:10:19.663Z,10.87
2019-02-21T18:12:48.194Z,10.73
2019-02-21T18:15:17.727Z,11.83
2019-02-21T18:17:46.197Z,9.53
2019-02-21T18:20:15.493Z,11.13
2019-02-21T18:22:44.458Z,10.70
2019-02-21T18:25:41.655Z,10.97
2019-02-21T18:28:10.209Z,11.33
2019-02-21T18:30:38.904Z,10.67
2019-02-21T18:33:07.458Z,10.80
2019-02-21T18:35:36.026Z,11.27
2019-02-21T18:38:04.783Z,12.27
2019-02-21T18:40:33.270Z,10.43
2019-02-21T18:43:04.477Z,11.80
2019-02-21T18:45:32.977Z,10.67
2019-02-21T18:48:01.500Z,10.97
2019-02-21T18:50:37.751Z,11.40
2019-02-21T18:53:00.158Z,12.83
2019-02-21T18:55:28.745Z,10.00
2019-02-21T18:57:57.261Z,10.20
2019-02-21T19:00:27.007Z,12.57
2019-02-21T19:02:55.497Z,11.70
2019-02-21T19:05:34.935Z,11.17
2019-02-21T19:08:00.814Z,13.20
2019-02-21T19:10:24.627Z,11.50
2019-02-21T19:12:53.090Z,12.50
2019-02-21T19:15:22.007Z,12.37
2019-02-21T19:17:50.571Z,12.33
2019-02-21T19:20:20.586Z,11.00
2019-02-21T19:22:49.142Z,12.73
2019-02-21T19:25:17.935Z,12.03
2019-02-21T19:27:46.511Z,11.83
2019-02-21T19:30:34.436Z,10.13
2019-02-21T19:33:03.045Z,11.60
2019-02-21T19:35:31.783Z,11.53
2019-02-21T19:38:09.913Z,12.13
2019-02-21T19:40:30.592Z,11.40
2019-02-21T19:42:59.115Z,11.30
2019-02-21T19:45:27.810Z,11.77
2019-02-21T19:47:56.379Z,10.63
2019-02-21T19:50:24.986Z,10.10
2019-02-21T19:52:53.551Z,11.17
2019-02-21T19:55:22.129Z,11.50
2019-02-21T19:57:50.864Z,10.97
2019-02-21T20:00:22.581Z,10.63
2019-02-21T20:02:51.094Z,11.03
2019-02-21T20:05:19.630Z,10.80
2019-02-21T20:07:48.229Z,10.43
2019-02-21T20:10:17.001Z,12.37
2019-02-21T20:12:45.511Z,11.63
2019-02-21T20:15:14.422Z,10.93
2019-02-21T20:17:43.144Z,11.63
2019-02-21T20:20:23.240Z,11.87
2019-02-21T20:22:51.900Z,12.87
2019-02-21T20:25:20.477Z,11.87
2019-02-21T20:27:49.097Z,13.23
2019-02-21T20:30:20.864Z,11.60
2019-02-21T20:32:49.492Z,11.37
2019-02-21T20:35:18.082Z,12.90
2019-02-21T20:37:46.620Z,11.63
2019-02-21T20:40:15.357Z,12.27
2019-02-21T20:42:43.914Z,11.93
2019-02-21T20:45:14.274Z,11.23
2019-02-21T20:47:42.856Z,10.83
2019-02-21T20:50:12.661Z,11.27
2019-02-21T20:52:41.291Z,12.37
2019-02-21T20:55:11.102Z,11.53
2019-02-21T20:57:39.683Z,12.90
2019-02-21T21:00:11.400Z,12.23
2019-02-21T21:02:39.927Z,12.80
2019-02-21T21:05:08.668Z,12.60
2019-02-21T21:07:37.208Z,12.57
2019-02-21T21:10:09.276Z,12.40
2019-02-21T21:12:37.819Z,11.30
2019-02-21T21:15:09.545Z,12.90
2019-02-21T21:17:38.273Z,11.33
2019-02-21T21:20:16.377Z,13.13
2019-02-21T21:22:42.114Z,13.43
2019-02-21T21:25:15.213Z,13.17
2019-02-21T21:27:43.848Z,11.97
2019-02-21T21:30:14.300Z,13.63
2019-02-21T21:32:42.895Z,13.80
2019-02-21T21:35:11.672Z,11.77
2019-02-21T21:37:40.258Z,13.27
2019-02-21T21:40:12.022Z,12.90
2019-02-21T21:42:40.592Z,12.07
2019-02-21T21:45:14.471Z,15.93
2019-02-21T21:47:43.104Z,18.60
2019-02-21T21:50:14.421Z,15.37
2019-02-21T21:52:42.969Z,17.13
2019-02-21T21:55:11.602Z,16.53
2019-02-21T21:57:40.136Z,16.67
2019-02-21T22:00:11.692Z,12.93
2019-02-21T22:02:40.152Z,12.40
2019-02-21T22:05:09.522Z,14.50
2019-02-21T22:07:38.076Z,13.40
2019-02-21T22:10:12.660Z,13.47
2019-02-21T22:12:41.221Z,12.43
2019-02-21T22:15:12.702Z,13.33
2019-02-21T22:17:42.183Z,12.87
2019-02-21T22:20:10.949Z,13.27
2019-02-21T22:22:39.568Z,16.07
2019-02-21T22:25:10.576Z,13.87
2019-02-21T22:27:39.067Z,14.03
2019-02-21T22:30:20.575Z,14.87
2019-02-21T22:32:49.162Z,12.73
2019-02-21T22:35:17.648Z,15.10
2019-02-21T22:37:46.227Z,12.87
2019-02-21T22:40:19.499Z,14.33
2019-02-21T22:42:47.986Z,12.87
2019-02-21T22:45:16.533Z,14.00
2019-02-21T22:47:45.133Z,14.80
2019-02-21T22:50:17.617Z,15.27
2019-02-21T22:52:46.199Z,13.77
2019-02-21T22:55:14.798Z,13.93
2019-02-21T22:57:43.310Z,12.40
2019-02-21T23:00:30.987Z,15.10
2019-02-21T23:03:00.466Z,14.43
2019-02-21T23:05:54.422Z,14.23
2019-02-21T23:08:41.041Z,14.13
2019-02-21T23:11:09.509Z,15.67
2019-02-21T23:13:38.146Z,15.33
2019-02-21T23:16:06.832Z,13.87
2019-02-21T23:18:35.487Z,14.33
2019-02-21T23:21:04.158Z,15.30
2019-02-21T23:23:32.880Z,15.47
2019-02-21T23:26:01.450Z,16.57
2019-02-21T23:28:29.937Z,14.13
2019-02-21T23:30:58.507Z,15.10
2019-02-21T23:33:27.604Z,14.07
2019-02-21T23:35:56.115Z,15.00
2019-02-21T23:38:24.679Z,16.67
2019-02-21T23:40:53.175Z,16.10
2019-02-21T23:43:21.721Z,18.57
2019-02-21T23:45:50.295Z,20.60
2019-02-21T23:48:18.917Z,46.70
2019-02-21T23:50:47.459Z,52.80
2019-02-21T23:53:17.585Z,59.37
2019-02-21T23:55:46.170Z,44.57
2019-02-21T23:58:14.668Z,54.17
